CheckWX is a tool to help pilots better visualize weather data.  It is not intended as a substitute for an official pre-flight weather briefing.

20:53:48 UTC

DAUI TAF
In Salah Airport
In Salah, Algeria
TAF DAUI 171700Z 1718/1818 04016KT 8000 NSC PROB30 TEMPO 1718/1721 5000 DRSA

Aug-17@
18:00 UTC

Aug-17 @ 18:00 UTC

Aug-18@
18:00 UTC

Aug-18 @ 18:00 UTC

TAF DAUI 171700Z 1718/1818 04016KT 8000 NSC
Wind
  • 040° at 16 KTS
Cloud Levels
  • No significant clouds

Aug-17@
18:00 UTC

Aug-17 @ 18:00 UTC

Aug-17@
21:00 UTC

Aug-17 @ 21:00 UTC

PROB30 TEMPO 1718/1721 5000 DRSA

Temporary - 30% Likelihood

Temporary - 30% Likelihood during this time.

Conditions
Low drifting Sand